Time;durP1;ratioP1;P1;durP2;ratioP2;P2;SDS_P1;SDS_P2;PMS_P1;PMS_P2;Temp;Humidity;BMP_temperature;BMP_pressure;BME280_temperature;BME280_humidity;BME280_pressure;Samples;Min_cycle;Max_cycle;Signal;HPM_P1;HPM_P2
2021/01/18 00:02:08;;;;;;;8.57;3.80;;;2.30;99.90;;;3.08;100.00;98828.44;5002665;28;20521;-78
2021/01/18 00:04:36;;;;;;;10.30;4.47;;;2.40;99.90;;;3.03;100.00;98820.22;5001068;28;20460;-78
2021/01/18 00:07:06;;;;;;;6.33;4.03;;;2.30;99.90;;;3.09;100.00;98832.66;4997926;28;20469;-78
2021/01/18 00:09:34;;;;;;;7.50;3.97;;;2.50;99.90;;;3.12;100.00;98824.69;4998854;28;20463;-78
2021/01/18 00:12:02;;;;;;;5.00;3.37;;;2.40;99.90;;;3.09;100.00;98819.75;4999000;28;20863;-78
2021/01/18 00:14:30;;;;;;;5.70;3.13;;;2.40;99.90;;;3.07;100.00;98831.97;4999720;28;20455;-78
2021/01/18 00:16:57;;;;;;;7.97;3.30;;;2.30;99.90;;;3.09;100.00;98830.06;4999443;28;20505;-78
2021/01/18 00:19:25;;;;;;;5.87;3.30;;;2.40;99.90;;;3.08;100.00;98833.63;5000974;28;20737;-78
2021/01/18 00:21:53;;;;;;;5.20;3.20;;;2.40;99.90;;;3.12;100.00;98840.19;5001098;28;20537;-79
2021/01/18 00:24:20;;;;;;;5.70;3.23;;;2.50;99.90;;;3.10;100.00;98841.22;5001287;28;20448;-78
2021/01/18 00:26:49;;;;;;;4.60;3.00;;;2.50;99.90;;;3.15;100.00;98845.13;5000388;28;20451;-78
2021/01/18 00:29:17;;;;;;;4.20;2.80;;;2.60;99.90;;;3.17;100.00;98832.88;4997948;28;20486;-78
2021/01/18 00:31:45;;;;;;;6.37;3.47;;;2.60;99.90;;;3.19;100.00;98828.44;4998555;28;20880;-78
2021/01/18 00:34:13;;;;;;;9.30;3.07;;;2.60;99.90;;;3.21;100.00;98829.13;4998875;28;20538;-78
2021/01/18 00:36:47;;;;;;;9.03;2.97;;;2.60;99.90;;;3.23;100.00;98832.38;4999741;28;21967;-78
2021/01/18 00:39:15;;;;;;;4.63;2.80;;;2.70;99.90;;;3.22;100.00;98825.59;4999561;28;20470;-78
2021/01/18 00:41:43;;;;;;;6.37;2.53;;;2.70;99.90;;;3.22;100.00;98835.94;4998064;28;20542;-78
2021/01/18 00:44:11;;;;;;;7.73;3.90;;;2.70;99.90;;;3.23;100.00;98832.38;4999694;28;20475;-78
2021/01/18 00:46:39;;;;;;;6.03;2.60;;;2.70;99.90;;;3.15;100.00;98845.13;4999813;28;20456;-78
2021/01/18 00:49:06;;;;;;;3.37;2.27;;;2.50;99.90;;;3.13;100.00;98844.41;4998345;28;20552;-78
2021/01/18 00:51:38;;;;;;;6.43;3.50;;;2.50;99.90;;;3.15;100.00;98829.63;4998289;28;20951;-78
2021/01/18 00:54:06;;;;;;;4.00;2.97;;;2.60;99.90;;;3.13;100.00;98834.06;4996545;28;20471;-78
2021/01/18 00:56:34;;;;;;;3.30;2.70;;;2.60;99.90;;;3.17;100.00;98835.47;4999049;28;20506;-78
2021/01/18 00:59:01;;;;;;;8.73;3.27;;;2.70;99.90;;;3.18;100.00;98834.53;4997464;28;20509;-78
2021/01/18 01:01:30;;;;;;;7.67;3.27;;;2.70;99.90;;;3.18;100.00;98844.88;4998318;28;20518;-78
2021/01/18 01:03:57;;;;;;;5.83;3.10;;;2.70;99.90;;;3.21;100.00;98839.47;5000337;28;20466;-78
2021/01/18 01:06:25;;;;;;;6.87;2.70;;;2.70;99.90;;;3.22;100.00;98833.34;4997589;28;20463;-78
2021/01/18 01:08:52;;;;;;;5.00;2.63;;;2.70;99.90;;;3.23;100.00;98836.75;4998136;28;20597;-78
2021/01/18 01:11:20;;;;;;;9.60;3.27;;;2.70;99.90;;;3.21;100.00;98842.03;4997392;28;20952;-78
2021/01/18 01:13:49;;;;;;;10.47;3.60;;;2.60;99.90;;;3.24;100.00;98839.22;4992698;28;20923;-78
2021/01/18 01:16:16;;;;;;;9.43;3.33;;;2.70;99.90;;;3.25;100.00;98843.44;4998828;28;20466;-78
2021/01/18 01:18:45;;;;;;;6.33;3.07;;;2.70;99.90;;;3.31;100.00;98844.72;4998566;28;20586;-78
2021/01/18 01:21:13;;;;;;;6.10;2.93;;;2.80;99.90;;;3.31;100.00;98844.72;5000015;28;20498;-78
2021/01/18 01:23:40;;;;;;;4.77;2.37;;;2.80;99.90;;;3.30;100.00;98849.06;4997613;28;20467;-78
2021/01/18 01:26:08;;;;;;;4.93;3.03;;;2.80;99.90;;;3.26;100.00;98852.84;4995482;28;20888;-78
2021/01/18 01:28:35;;;;;;;3.73;2.80;;;2.80;99.90;;;3.29;100.00;98846.59;4996459;28;20506;-78
2021/01/18 01:31:03;;;;;;;11.70;2.93;;;2.80;99.90;;;3.31;100.00;98850.69;4999113;28;20509;-78
2021/01/18 01:33:31;;;;;;;5.23;2.77;;;2.70;99.90;;;3.33;100.00;98848.81;4995409;28;20459;-78
2021/01/18 01:36:01;;;;;;;8.50;3.10;;;2.80;99.90;;;3.31;100.00;98850.69;4999168;28;20472;-78
2021/01/18 01:38:28;;;;;;;5.30;3.00;;;2.80;99.90;;;3.33;100.00;98858.34;4998265;28;20484;-78
2021/01/18 01:40:55;;;;;;;7.80;2.63;;;2.90;99.90;;;3.30;100.00;98859.38;4999607;28;20533;-79
2021/01/18 01:43:23;;;;;;;8.17;3.20;;;2.80;99.90;;;3.34;100.00;98855.63;5000033;28;20459;-78
2021/01/18 01:45:50;;;;;;;6.80;3.07;;;2.80;99.90;;;3.34;100.00;98854.81;5002742;28;20462;-78
2021/01/18 01:48:19;;;;;;;3.90;2.50;;;2.90;99.90;;;3.34;100.00;98858.22;5001943;28;20460;-78
2021/01/18 01:50:48;;;;;;;7.30;3.17;;;2.90;99.90;;;3.27;100.00;98854.47;5003072;28;20502;-78
2021/01/18 01:53:20;;;;;;;6.27;2.90;;;2.80;99.90;;;3.29;100.00;98860.34;5002611;28;20478;-78
2021/01/18 01:55:50;;;;;;;8.00;3.00;;;2.80;99.90;;;3.34;100.00;98859.97;5003871;28;20467;-78
2021/01/18 01:58:17;;;;;;;5.83;2.70;;;2.90;99.90;;;3.35;100.00;98864.22;4999041;28;20572;-78
2021/01/18 02:00:45;;;;;;;7.80;2.97;;;2.90;99.90;;;3.33;100.00;98864.31;5002183;28;20470;-78
2021/01/18 02:03:20;;;;;;;7.03;3.10;;;2.80;99.90;;;3.32;100.00;98872.19;5001026;28;20495;-78
2021/01/18 02:05:49;;;;;;;5.63;2.70;;;2.70;99.90;;;3.31;100.00;98866.22;5001291;28;20526;-78
2021/01/18 02:08:17;;;;;;;9.33;3.30;;;2.70;99.90;;;3.35;100.00;98867.63;4998453;28;20968;-78
2021/01/18 02:10:45;;;;;;;8.07;2.70;;;2.80;99.90;;;3.37;100.00;98870.06;5002235;28;20818;-78
2021/01/18 02:13:26;;;;;;;5.63;3.00;;;2.80;99.90;;;3.32;100.00;98869.63;4999720;28;20491;-78
2021/01/18 02:16:08;;;;;;;5.17;2.60;;;2.80;99.90;;;3.33;100.00;98868.69;5000657;28;20471;-78
2021/01/18 02:18:55;;;;;;;4.83;2.30;;;2.90;99.90;;;3.35;100.00;98862.44;5004108;28;20498;-78
2021/01/18 02:22:27;;;;;;;10.80;3.10;;;2.90;99.90;;;3.36;100.00;98868.44;5002283;28;20522;-78
2021/01/18 02:25:31;;;;;;;3.47;2.20;;;2.90;99.90;;;3.37;100.00;98870.06;4965254;28;20517;-78
2021/01/18 02:28:26;;;;;;;8.43;3.20;;;3.00;99.90;;;3.33;100.00;98864.31;5000523;28;20514;-78
2021/01/18 02:31:50;;;;;;;7.53;2.60;;;2.80;99.90;;;3.33;100.00;98874.66;5000468;28;20467;-78
2021/01/18 02:35:01;;;;;;;5.33;2.47;;;2.80;99.90;;;3.34;100.00;98868.53;4997224;28;20604;-78
2021/01/18 02:38:11;;;;;;;5.83;2.70;;;2.80;99.90;;;3.32;100.00;98872.19;5000401;28;20952;-78
2021/01/18 02:40:56;;;;;;;3.43;1.87;;;2.80;99.90;;;3.31;100.00;98870.56;5003246;28;20463;-78
2021/01/18 02:43:29;;;;;;;4.20;2.30;;;2.80;99.90;;;3.27;100.00;98864.81;5000979;28;20463;-78
2021/01/18 02:46:01;;;;;;;3.47;2.10;;;2.60;99.90;;;3.27;100.00;98863.97;5000404;28;20890;-79
2021/01/18 02:48:31;;;;;;;8.93;2.30;;;2.60;99.90;;;3.27;100.00;98859.63;5001569;28;20466;-78
2021/01/18 02:51:04;;;;;;;3.73;2.30;;;2.70;99.90;;;3.28;100.00;98861.28;4999674;28;20575;-78
2021/01/18 02:53:33;;;;;;;2.07;1.87;;;2.70;99.90;;;3.28;100.00;98861.28;5000368;28;20498;-78
2021/01/18 02:56:01;;;;;;;2.70;1.97;;;2.60;99.90;;;3.28;100.00;98866.44;5000235;28;21033;-78
2021/01/18 02:58:35;;;;;;;2.37;2.10;;;2.60;99.90;;;3.27;100.00;98861.41;5001646;28;20554;-78
2021/01/18 03:01:15;;;;;;;2.47;1.87;;;2.60;99.90;;;3.26;100.00;98867.53;5002023;28;20456;-78
2021/01/18 03:03:58;;;;;;;3.43;1.97;;;2.60;99.90;;;3.25;100.00;98876.22;5002038;28;21422;-78
2021/01/18 03:06:36;;;;;;;4.73;1.80;;;2.50;99.90;;;3.15;100.00;98870.13;5001342;28;20470;-78
2021/01/18 03:09:19;;;;;;;3.50;2.00;;;2.40;99.90;;;3.18;100.00;98878.47;5001094;28;20847;-78
2021/01/18 03:11:51;;;;;;;3.63;2.23;;;2.50;99.90;;;3.19;100.00;98881.88;5002260;28;20467;-78
2021/01/18 03:14:27;;;;;;;4.23;2.23;;;2.50;99.90;;;3.19;100.00;98877.53;4998769;28;20470;-78
2021/01/18 03:16:58;;;;;;;2.70;1.73;;;2.50;99.90;;;3.23;100.00;98867.78;5001118;28;20497;-78
2021/01/18 03:19:43;;;;;;;9.60;2.60;;;2.70;99.90;;;3.12;100.00;98873.78;4997305;28;20463;-78
2021/01/18 03:22:22;;;;;;;4.90;2.40;;;2.60;99.90;;;3.11;100.00;98866.97;5000984;28;20462;-78
2021/01/18 03:24:59;;;;;;;1.70;1.60;;;2.50;99.90;;;3.10;100.00;98878.22;5000865;28;20467;-78
2021/01/18 03:27:27;;;;;;;8.33;2.17;;;2.50;99.90;;;3.03;100.00;98862.38;4996967;28;20455;-78
2021/01/18 03:29:54;;;;;;;3.07;1.70;;;2.40;99.90;;;3.03;100.00;98866.72;5000851;28;20549;-79
2021/01/18 03:32:22;;;;;;;2.03;1.53;;;2.40;99.90;;;2.96;100.00;98865.56;4999866;28;20468;-78
2021/01/18 03:34:50;;;;;;;3.80;1.90;;;2.30;99.90;;;2.98;100.00;98871.44;5001398;28;20467;-78
2021/01/18 03:37:17;;;;;;;2.87;1.53;;;2.40;99.90;;;2.94;100.00;98872.63;4999393;28;20629;-78
2021/01/18 03:39:45;;;;;;;5.30;1.80;;;2.30;99.90;;;2.94;100.00;98867.44;4999352;28;20522;-78
2021/01/18 03:42:13;;;;;;;1.80;1.40;;;2.30;99.90;;;2.88;100.00;98862.78;5001486;28;20462;-78
2021/01/18 03:44:41;;;;;;;6.80;2.00;;;2.20;99.90;;;2.77;100.00;98860.19;4999889;28;20455;-78
2021/01/18 03:47:09;;;;;;;4.17;2.13;;;2.00;99.90;;;2.78;100.00;98856.63;4999979;28;20985;-77
2021/01/18 03:49:36;;;;;;;3.23;2.03;;;2.00;99.90;;;2.78;100.00;98857.47;4999080;28;20883;-77
2021/01/18 03:52:04;;;;;;;4.90;1.90;;;2.10;99.90;;;2.75;100.00;98854.31;5001659;28;20463;-77
2021/01/18 03:54:32;;;;;;;4.53;1.73;;;2.10;99.90;;;2.68;100.00;98853.94;4998483;28;20474;-77
2021/01/18 03:56:59;;;;;;;4.53;1.73;;;2.10;99.90;;;2.64;100.00;98854.31;4999512;28;20565;-77
2021/01/18 03:59:27;;;;;;;2.40;1.50;;;2.10;99.90;;;2.58;100.00;98855.59;4998688;28;20542;-77
2021/01/18 04:01:55;;;;;;;8.13;2.20;;;1.90;99.90;;;2.54;100.00;98849.03;4997250;28;20479;-77
2021/01/18 04:04:23;;;;;;;1.90;1.70;;;1.90;99.90;;;2.56;100.00;98859.25;4999272;28;20455;-78
2021/01/18 04:06:50;;;;;;;4.27;1.83;;;1.90;99.90;;;2.52;100.00;98864.63;4999000;28;20470;-77
2021/01/18 04:09:18;;;;;;;4.43;1.77;;;1.90;99.90;;;2.43;100.00;98865.31;5000292;28;20997;-77
2021/01/18 04:11:46;;;;;;;3.17;1.63;;;1.80;99.90;;;2.34;100.00;98866.03;4998925;28;20521;-77
2021/01/18 04:14:13;;;;;;;5.73;1.90;;;1.60;99.90;;;2.33;100.00;98866.94;4998529;28;20987;-77
2021/01/18 04:16:43;;;;;;;2.47;1.90;;;1.50;99.90;;;2.26;100.00;98873.50;5000252;28;20464;-77
2021/01/18 04:19:15;;;;;;;6.40;1.90;;;1.50;99.90;;;2.27;100.00;98877.72;4998972;28;20460;-77
2021/01/18 04:21:42;;;;;;;4.00;1.87;;;1.50;99.90;;;2.17;100.00;98874.19;4998368;28;20488;-77
2021/01/18 04:24:11;;;;;;;3.20;2.00;;;1.40;99.90;;;2.17;100.00;98879.34;4995647;28;21001;-77
2021/01/18 04:26:39;;;;;;;2.20;1.67;;;1.30;99.90;;;2.15;100.00;98876.09;4998162;28;20466;-77
2021/01/18 04:29:07;;;;;;;2.23;1.90;;;1.50;99.90;;;2.09;100.00;98876.50;5000175;28;20537;-78
2021/01/18 04:31:40;;;;;;;5.07;2.33;;;1.50;99.90;;;1.96;100.00;98870.63;4999182;28;20521;-77
2021/01/18 04:34:09;;;;;;;4.27;1.83;;;1.20;99.90;;;1.96;100.00;98870.63;4998895;28;20471;-78
2021/01/18 04:36:38;;;;;;;2.70;2.20;;;1.10;99.90;;;1.92;100.00;98871.78;5000263;28;20468;-77
2021/01/18 04:39:08;;;;;;;3.93;2.20;;;1.20;99.90;;;1.89;100.00;98872.00;4999562;28;20473;-77
2021/01/18 04:41:37;;;;;;;6.00;2.73;;;1.10;99.90;;;1.88;100.00;98867.78;5000431;28;20470;-77
2021/01/18 04:44:08;;;;;;;5.43;2.30;;;1.10;99.90;;;1.89;100.00;98877.16;4998089;28;20464;-77
2021/01/18 04:46:40;;;;;;;1.97;1.80;;;1.30;99.90;;;1.86;100.00;98877.38;4998084;28;20467;-77
2021/01/18 04:49:09;;;;;;;4.70;2.13;;;1.20;99.90;;;1.87;100.00;98874.72;4999801;28;20957;-77
2021/01/18 04:51:44;;;;;;;2.50;1.60;;;1.20;99.90;;;1.85;100.00;98875.72;5000640;28;20474;-77
2021/01/18 04:54:16;;;;;;;6.80;2.20;;;1.20;99.90;;;1.88;100.00;98878.09;4999588;28;20467;-77
2021/01/18 04:57:10;;;;;;;2.90;2.00;;;1.20;99.90;;;1.89;100.00;98882.31;4999942;28;20482;-77
2021/01/18 04:59:44;;;;;;;2.60;2.17;;;1.20;99.90;;;1.90;100.00;98883.97;4994308;28;21075;-77
2021/01/18 05:02:17;;;;;;;5.23;2.30;;;1.20;99.90;;;1.86;100.00;98870.47;4999215;28;20463;-78
2021/01/18 05:04:47;;;;;;;2.30;2.10;;;1.20;99.90;;;1.83;100.00;98872.47;4998663;28;20463;-77
2021/01/18 05:08:04;;;;;;;3.83;2.20;;;1.10;99.90;;;1.84;100.00;98874.91;4999161;28;20452;-78
2021/01/18 05:10:33;;;;;;;12.33;2.73;;;1.10;99.90;;;1.83;100.00;98880.19;5000562;28;20955;-78
2021/01/18 05:13:05;;;;;;;3.80;1.87;;;1.10;99.90;;;1.82;100.00;98879.38;4997164;28;20483;-77
2021/01/18 05:15:37;;;;;;;6.10;2.07;;;1.10;99.90;;;1.83;100.00;98882.78;4999643;28;20856;-78
2021/01/18 05:18:08;;;;;;;4.10;2.13;;;1.20;99.90;;;1.90;100.00;98889.13;4996628;28;21077;-77
2021/01/18 05:20:37;;;;;;;2.40;2.20;;;1.20;99.90;;;1.96;100.00;98883.50;5003363;28;20463;-77
2021/01/18 05:23:07;;;;;;;4.30;1.90;;;1.30;99.90;;;1.92;100.00;98888.06;5001952;28;20459;-78
2021/01/18 05:25:36;;;;;;;12.60;2.73;;;1.30;99.90;;;1.95;100.00;98882.69;5003478;28;20466;-77
2021/01/18 05:28:08;;;;;;;3.40;2.37;;;1.30;99.90;;;1.96;100.00;98883.50;5003479;28;20567;-77
2021/01/18 05:30:39;;;;;;;5.20;2.30;;;1.30;99.90;;;1.96;100.00;98881.75;5002598;28;20869;-77
2021/01/18 05:33:09;;;;;;;5.27;2.40;;;1.30;99.90;;;2.00;100.00;98887.53;5000547;28;20479;-77
2021/01/18 05:35:41;;;;;;;7.20;2.43;;;1.30;99.90;;;1.99;100.00;98883.28;5001633;28;20471;-77
2021/01/18 05:38:10;;;;;;;4.30;2.50;;;1.30;99.90;;;2.01;100.00;98881.44;5001963;28;20483;-77
2021/01/18 05:40:41;;;;;;;4.93;2.90;;;1.30;99.90;;;1.99;100.00;98878.97;5001218;28;20459;-77
2021/01/18 05:43:10;;;;;;;9.80;2.67;;;1.30;99.90;;;1.98;100.00;98885.03;5001281;28;20520;-77
2021/01/18 05:45:41;;;;;;;5.60;2.50;;;1.30;99.90;;;2.00;100.00;98874.63;5004813;28;20468;-77
2021/01/18 05:48:11;;;;;;;4.23;2.17;;;1.30;99.90;;;2.01;100.00;98882.22;5001387;28;20547;-78
2021/01/18 05:50:40;;;;;;;3.80;2.37;;;1.30;99.90;;;1.98;100.00;98881.63;5003441;28;20986;-77
2021/01/18 05:53:24;;;;;;;7.67;2.97;;;1.30;99.90;;;2.02;100.00;98877.91;5001920;28;20462;-77
2021/01/18 05:56:17;;;;;;;3.93;2.23;;;1.40;99.90;;;2.01;100.00;98877.06;5001258;28;20464;-77
2021/01/18 05:58:47;;;;;;;5.03;2.33;;;1.30;99.90;;;1.99;100.00;98878.97;5002312;28;20509;-77
2021/01/18 06:01:34;;;;;;;6.37;3.00;;;1.40;99.90;;;1.96;100.00;98883.50;5002504;28;20886;-77
2021/01/18 06:04:09;;;;;;;3.83;2.70;;;1.30;99.90;;;1.98;100.00;98889.38;5002029;28;20476;-77
2021/01/18 06:06:37;;;;;;;4.13;2.60;;;1.30;99.90;;;1.93;100.00;98894.06;5002929;28;20461;-77
2021/01/18 06:09:06;;;;;;;4.00;2.63;;;1.20;99.90;;;1.96;100.00;98889.50;4999934;28;20471;-77
2021/01/18 06:11:33;;;;;;;7.40;2.70;;;1.20;99.90;;;1.97;100.00;98898.06;5001933;28;20471;-77
2021/01/18 06:14:02;;;;;;;6.40;2.87;;;1.30;99.90;;;2.00;100.00;98885.75;5002152;28;20460;-77
2021/01/18 06:16:32;;;;;;;7.50;3.10;;;1.30;99.90;;;1.97;100.00;98887.75;5002627;28;20467;-77
2021/01/18 06:19:07;;;;;;;9.10;3.10;;;1.40;99.90;;;1.96;100.00;98879.19;5003359;28;20494;-77
2021/01/18 06:21:41;;;;;;;3.03;2.67;;;1.30;99.90;;;1.99;100.00;98883.28;5001083;28;20916;-77
2021/01/18 06:24:27;;;;;;;7.20;3.30;;;1.40;99.90;;;2.02;100.00;98889.03;5001888;28;20446;-78
2021/01/18 06:26:55;;;;;;;9.83;3.37;;;1.40;99.90;;;2.06;100.00;98893.97;5003095;28;20467;-77
2021/01/18 06:29:42;;;;;;;6.47;3.47;;;1.50;99.90;;;2.08;100.00;98885.22;5001251;28;20991;-77
2021/01/18 06:32:13;;;;;;;5.83;2.90;;;1.50;99.90;;;2.09;100.00;98884.25;4999286;28;20474;-78
2021/01/18 06:34:41;;;;;;;6.40;3.70;;;1.40;99.90;;;2.14;100.00;98881.34;5001323;28;20467;-77
2021/01/18 06:37:20;;;;;;;9.13;3.90;;;1.50;99.90;;;2.13;100.00;98893.41;5002332;28;20467;-77
2021/01/18 06:39:57;;;;;;;5.43;3.43;;;1.50;99.90;;;2.17;100.00;98901.75;5001962;28;20468;-77
2021/01/18 06:42:24;;;;;;;10.60;3.80;;;1.50;99.90;;;2.20;100.00;98901.50;5002171;28;20470;-77
2021/01/18 06:44:53;;;;;;;5.30;3.17;;;1.60;99.90;;;2.17;100.00;98905.16;5002411;28;20464;-77
2021/01/18 06:47:35;;;;;;;9.90;3.33;;;1.60;99.90;;;2.20;100.00;98907.50;5000593;28;20470;-77
2021/01/18 06:50:06;;;;;;;5.07;3.50;;;1.60;99.90;;;2.18;100.00;98909.38;5002262;28;20463;-77
2021/01/18 06:52:35;;;;;;;14.83;3.60;;;1.50;99.90;;;2.22;100.00;98915.94;4996472;28;20837;-77
2021/01/18 06:55:07;;;;;;;7.80;3.97;;;1.60;99.90;;;2.19;100.00;98915.34;4999520;28;20460;-77
2021/01/18 06:58:02;;;;;;;8.13;3.50;;;1.50;99.90;;;2.19;100.00;98920.50;5000314;28;20630;-78
2021/01/18 07:00:31;;;;;;;8.67;3.70;;;1.50;99.90;;;2.24;100.00;98921.81;5001562;28;20913;-77
2021/01/18 07:03:01;;;;;;;7.73;3.93;;;1.50;99.90;;;2.27;100.00;98923.34;5001429;28;20478;-77
2021/01/18 07:05:36;;;;;;;11.50;5.13;;;1.50;99.90;;;2.23;100.00;98919.34;5001671;28;20881;-78
2021/01/18 07:08:14;;;;;;;8.87;4.50;;;1.50;99.90;;;2.28;100.00;98922.41;5001217;28;20477;-77
2021/01/18 07:10:46;;;;;;;5.30;3.80;;;1.60;99.90;;;2.27;100.00;98921.59;5002657;28;20832;-77
2021/01/18 07:13:18;;;;;;;9.40;3.70;;;1.60;99.90;;;2.27;100.00;98913.03;5000899;28;20961;-78
2021/01/18 07:15:48;;;;;;;10.60;3.63;;;1.60;99.90;;;2.29;100.00;98917.13;5001112;28;20966;-77
2021/01/18 07:18:19;;;;;;;6.40;4.07;;;1.70;99.90;;;2.31;100.00;98929.94;4997909;28;20500;-77
2021/01/18 07:20:48;;;;;;;19.97;8.67;;;1.60;99.90;;;2.28;100.00;98925.84;4996853;28;20455;-79
2021/01/18 07:23:30;;;;;;;9.70;5.10;;;1.60;99.90;;;2.26;100.00;98935.41;4998624;28;20451;-78
2021/01/18 07:27:00;;;;;;;12.77;4.13;;;1.50;99.90;;;2.24;100.00;98933.91;4994863;28;20473;-77
2021/01/18 07:29:28;;;;;;;10.13;4.17;;;1.50;99.90;;;2.28;100.00;98935.31;4998126;28;20536;-77
2021/01/18 07:31:58;;;;;;;11.53;3.63;;;1.60;99.90;;;2.28;100.00;98936.16;4999080;28;20479;-77
2021/01/18 07:34:28;;;;;;;8.23;3.50;;;1.70;99.90;;;2.33;100.00;98943.53;4999747;28;20717;-77
2021/01/18 07:37:08;;;;;;;15.43;6.70;;;1.60;99.90;;;2.34;100.00;98932.28;5000518;28;21182;-77
2021/01/18 07:39:38;;;;;;;10.60;4.10;;;1.60;99.90;;;2.37;100.00;98943.19;5000670;28;20987;-77
2021/01/18 07:42:37;;;;;;;10.03;4.10;;;1.70;99.90;;;2.35;100.00;98942.50;5000589;28;20448;-77
2021/01/18 07:45:19;;;;;;;10.73;4.67;;;1.60;99.90;;;2.35;100.00;98944.25;5001174;28;20797;-78
2021/01/18 07:48:07;;;;;;;8.17;3.97;;;1.60;99.90;;;2.31;100.00;98940.25;5001858;28;20968;-77
2021/01/18 07:50:37;;;;;;;15.90;3.70;;;1.60;99.90;;;2.32;100.00;98932.41;5001717;28;20458;-77
2021/01/18 07:53:08;;;;;;;5.60;3.50;;;1.50;99.90;;;2.31;100.00;98935.91;5001481;28;20472;-77
2021/01/18 07:55:39;;;;;;;9.33;3.70;;;1.50;99.90;;;2.32;100.00;98945.31;5003841;28;20827;-77
2021/01/18 07:58:15;;;;;;;6.10;3.10;;;1.60;99.90;;;2.34;100.00;98945.19;5000724;28;20496;-77
2021/01/18 08:00:44;;;;;;;12.23;3.83;;;1.60;99.90;;;2.32;100.00;98947.91;5000849;28;20508;-77
2021/01/18 08:03:27;;;;;;;6.33;3.73;;;1.60;99.90;;;2.31;100.00;98953.97;5002039;28;20459;-77
2021/01/18 08:06:12;;;;;;;6.53;4.00;;;1.50;99.90;;;2.34;100.00;98956.34;4997566;28;20925;-77
2021/01/18 08:08:41;;;;;;;7.23;4.20;;;1.60;99.90;;;2.35;100.00;98960.56;5000321;28;20943;-77
2021/01/18 08:11:25;;;;;;;5.03;3.60;;;1.60;99.90;;;2.36;100.00;98963.97;4998957;28;20514;-77
2021/01/18 08:13:57;;;;;;;8.43;4.57;;;1.60;99.90;;;2.36;100.00;98964.78;4996971;28;21000;-77
2021/01/18 08:16:42;;;;;;;4.60;3.40;;;1.60;99.90;;;2.39;100.00;98964.56;4999641;28;20933;-78
2021/01/18 08:19:22;;;;;;;14.70;6.97;;;1.70;99.90;;;2.41;100.00;98962.69;4997423;28;20502;-79
2021/01/18 08:22:04;;;;;;;14.53;5.57;;;1.70;99.90;;;2.46;100.00;98957.19;4997739;28;20465;-77
2021/01/18 08:24:54;;;;;;;8.17;4.40;;;1.70;99.90;;;2.50;100.00;98963.75;4998768;28;20885;-77
2021/01/18 08:27:43;;;;;;;5.13;3.77;;;1.80;99.90;;;2.53;100.00;98966.13;4999651;28;20459;-77
2021/01/18 08:30:34;;;;;;;6.43;4.13;;;1.90;99.90;;;2.60;100.00;98971.66;4999451;28;20495;-77
2021/01/18 08:33:05;;;;;;;7.50;4.10;;;1.90;99.90;;;2.62;100.00;98969.78;5001744;28;20479;-77
2021/01/18 08:35:50;;;;;;;12.60;4.10;;;1.90;99.90;;;2.65;100.00;98969.53;5002040;28;20443;-77
2021/01/18 08:38:27;;;;;;;12.13;4.17;;;2.00;99.90;;;2.68;100.00;98972.72;5001186;28;20511;-77
2021/01/18 08:41:08;;;;;;;7.90;4.40;;;2.00;99.90;;;2.75;100.00;98970.50;5002932;28;20452;-77
2021/01/18 08:43:49;;;;;;;8.60;4.50;;;2.10;99.90;;;2.77;100.00;98968.63;4999995;28;20902;-77
2021/01/18 08:46:36;;;;;;;10.97;5.30;;;2.10;99.90;;;2.80;100.00;98964.06;4999292;28;20443;-77
2021/01/18 08:49:28;;;;;;;9.53;5.67;;;2.10;99.90;;;2.82;100.00;98962.16;4999829;28;20459;-77
2021/01/18 08:51:56;;;;;;;10.37;5.00;;;2.10;99.90;;;2.87;100.00;98956.66;4998706;28;20464;-77
2021/01/18 08:54:32;;;;;;;10.17;5.77;;;2.20;99.90;;;2.90;100.00;98959.84;4999078;28;20474;-77
2021/01/18 08:57:24;;;;;;;8.80;5.20;;;2.20;99.90;;;2.95;100.00;98957.72;4996949;28;20497;-77
2021/01/18 09:00:13;;;;;;;16.70;6.87;;;2.20;99.90;;;3.03;100.00;98949.38;4997540;28;20456;-77
2021/01/18 09:02:42;;;;;;;12.80;6.53;;;2.30;99.90;;;3.01;100.00;98952.09;5000869;28;20497;-77
2021/01/18 09:05:15;;;;;;;18.50;7.87;;;2.30;99.90;;;3.07;100.00;98950.81;4998087;28;20506;-77
2021/01/18 09:07:43;;;;;;;13.67;6.03;;;2.40;99.90;;;3.09;100.00;98946.31;4998189;28;20544;-77
2021/01/18 09:10:16;;;;;;;8.60;4.90;;;2.40;99.90;;;3.11;100.00;98956.56;4996785;28;20467;-76
2021/01/18 09:12:46;;;;;;;12.13;4.90;;;2.50;99.90;;;3.13;100.00;98952.91;4998257;28;20468;-77
2021/01/18 09:15:17;;;;;;;8.10;4.60;;;2.50;99.90;;;3.16;100.00;98949.28;4996381;28;20455;-77
2021/01/18 09:17:45;;;;;;;6.37;4.90;;;2.50;99.90;;;3.22;100.00;98949.63;5000270;28;20443;-77
2021/01/18 09:20:15;;;;;;;9.30;4.90;;;2.60;99.90;;;3.24;100.00;98955.50;4997865;28;20471;-77
2021/01/18 09:22:45;;;;;;;10.83;4.40;;;2.70;99.90;;;3.26;100.00;98958.81;4998613;28;20467;-77
2021/01/18 09:25:16;;;;;;;6.60;4.60;;;2.80;99.90;;;3.29;100.00;98958.56;4998592;28;20465;-77
2021/01/18 09:27:44;;;;;;;14.80;5.60;;;2.70;99.90;;;3.33;100.00;98954.78;4997864;28;20967;-77
2021/01/18 09:30:17;;;;;;;12.10;4.80;;;2.70;99.90;;;3.36;100.00;98957.16;4992252;28;20492;-77
2021/01/18 09:32:55;;;;;;;8.60;4.37;;;2.70;99.90;;;3.40;100.00;98955.94;4998173;28;20471;-77
2021/01/18 09:35:26;;;;;;;12.10;5.30;;;2.80;99.90;;;3.45;100.00;98961.59;4998234;28;20536;-78
2021/01/18 09:37:54;;;;;;;11.60;5.00;;;2.90;99.90;;;3.50;100.00;98953.47;4997385;28;20495;-77
2021/01/18 09:40:43;;;;;;;8.40;4.80;;;2.90;99.90;;;3.53;100.00;98959.22;4999960;28;20459;-78
2021/01/18 09:43:12;;;;;;;14.80;5.20;;;3.00;99.90;;;3.55;100.00;98957.34;4999005;28;20539;-78
2021/01/18 09:45:41;;;;;;;5.90;4.13;;;3.00;99.90;;;3.62;100.00;98957.66;5000409;28;20459;-78
2021/01/18 09:48:11;;;;;;;9.30;4.07;;;3.10;99.90;;;3.60;100.00;98959.56;4997106;28;20458;-77
2021/01/18 09:50:39;;;;;;;14.40;4.13;;;3.10;99.90;;;3.66;100.00;98960.84;4997533;28;20468;-77
2021/01/18 09:53:09;;;;;;;8.80;4.57;;;3.10;99.90;;;3.60;100.00;98964.75;4996903;28;20466;-77
2021/01/18 09:55:45;;;;;;;8.03;4.00;;;3.00;99.90;;;3.65;100.00;98965.19;4997133;28;20470;-77
2021/01/18 09:58:18;;;;;;;6.43;3.93;;;3.00;99.90;;;3.69;100.00;98963.19;4998730;28;20882;-77
2021/01/18 10:00:48;;;;;;;9.77;4.60;;;3.10;99.90;;;3.74;100.00;98961.06;4999849;28;20513;-77
2021/01/18 10:03:27;;;;;;;9.97;4.10;;;3.20;99.90;;;3.76;100.00;98964.34;4997717;28;20543;-76
2021/01/18 10:06:05;;;;;;;5.60;4.17;;;3.20;99.90;;;3.77;100.00;98966.00;5001408;28;20469;-77
2021/01/18 10:08:35;;;;;;;8.30;4.50;;;3.10;99.90;;;3.78;100.00;98968.47;5000617;28;20951;-77
2021/01/18 10:11:05;;;;;;;12.93;5.43;;;3.20;99.90;;;3.81;100.00;98967.41;5002162;28;20490;-77
2021/01/18 10:13:32;;;;;;;7.13;4.17;;;3.20;99.90;;;3.82;100.00;98964.66;5000848;28;20490;-77
2021/01/18 10:16:13;;;;;;;4.80;4.10;;;3.30;99.90;;;3.84;100.00;98951.63;5002659;28;20541;-77
2021/01/18 10:18:44;;;;;;;6.70;3.90;;;3.20;99.90;;;3.90;100.00;98951.13;5002151;28;20479;-75
2021/01/18 10:21:13;;;;;;;16.00;6.20;;;3.40;99.90;;;3.91;100.00;98953.59;5002266;28;20469;-76
2021/01/18 10:23:47;;;;;;;5.83;4.17;;;3.40;99.90;;;3.91;100.00;98942.44;5002387;28;20463;-77
2021/01/18 10:26:25;;;;;;;8.23;4.40;;;3.30;99.90;;;3.97;100.00;98950.53;5002014;28;21020;-76
2021/01/18 10:28:56;;;;;;;6.93;4.03;;;3.40;99.90;;;3.97;100.00;98947.94;5000390;28;20497;-76
2021/01/18 10:31:27;;;;;;;5.60;3.77;;;3.40;99.90;;;4.04;100.00;98945.69;5000945;28;20466;-77
2021/01/18 10:34:17;;;;;;;4.67;3.67;;;3.50;99.90;;;4.02;100.00;98942.41;5002417;28;20470;-76
2021/01/18 10:36:47;;;;;;;8.17;4.10;;;3.40;99.90;;;4.05;100.00;98949.91;5002350;28;20469;-77
2021/01/18 10:39:30;;;;;;;10.30;3.80;;;3.40;99.90;;;4.11;100.00;98948.59;5001802;28;20509;-77
2021/01/18 10:42:08;;;;;;;5.43;4.57;;;3.50;99.90;;;4.15;100.00;98950.81;5002288;28;21108;-76
2021/01/18 10:44:38;;;;;;;7.13;4.33;;;3.60;99.90;;;4.20;100.00;98947.84;4999000;28;20927;-77
2021/01/18 10:47:07;;;;;;;9.13;4.00;;;3.70;99.90;;;4.22;100.00;98945.94;5001266;28;20460;-76
2021/01/18 10:49:36;;;;;;;9.93;3.50;;;3.70;99.90;;;4.29;100.00;98942.75;4998354;28;20474;-77
2021/01/18 10:52:09;;;;;;;3.67;3.00;;;3.80;99.90;;;4.33;100.00;98945.91;5000951;28;20522;-76
2021/01/18 10:54:38;;;;;;;13.00;4.33;;;3.90;99.90;;;4.31;100.00;98948.59;5000318;28;20526;-77